Time;durP1;ratioP1;P1;durP2;ratioP2;P2;SDS_P1;SDS_P2;PMS_P1;PMS_P2;Temp;Humidity;BMP_temperature;BMP_pressure;BME280_temperature;BME280_humidity;BME280_pressure;Samples;Min_cycle;Max_cycle;Signal;HPM_P1;HPM_P2
2020/12/28 00:00:18;;;;;;;5.10;3.53;;;;;;;-3.07;85.78;92192.96;1817137;77;21238;-73
2020/12/28 00:02:46;;;;;;;7.43;4.50;;;;;;;-3.06;86.01;92185.75;1806805;77;21898;-75
2020/12/28 00:05:14;;;;;;;5.93;4.20;;;;;;;-3.02;86.10;92179.41;1820263;77;21134;-75
2020/12/28 00:07:42;;;;;;;6.83;4.60;;;;;;;-2.96;86.20;92163.43;1795174;77;21108;-74
2020/12/28 00:10:12;;;;;;;8.13;4.77;;;;;;;-2.93;86.15;92168.63;1827663;77;21175;-74
2020/12/28 00:12:46;;;;;;;10.97;7.07;;;;;;;-2.96;86.35;92154.12;1820473;76;21197;-74
2020/12/28 00:15:24;;;;;;;18.00;8.47;;;;;;;-2.99;86.67;92158.02;1837478;75;21281;-75
2020/12/28 00:17:54;;;;;;;8.53;5.03;;;;;;;-2.97;86.43;92161.09;1788447;77;21912;-75
2020/12/28 00:20:24;;;;;;;11.40;5.93;;;;;;;-2.96;86.29;92167.98;1825659;76;21207;-75
2020/12/28 00:22:53;;;;;;;9.73;6.07;;;;;;;-2.94;86.31;92172.38;1796997;78;21266;-75
2020/12/28 00:25:43;;;;;;;9.77;5.60;;;;;;;-2.96;86.36;92170.64;1805346;77;21490;-74
2020/12/28 00:28:11;;;;;;;8.57;4.57;;;;;;;-2.95;86.59;92168.19;1825202;77;21217;-75
2020/12/28 00:30:39;;;;;;;5.43;3.57;;;;;;;-2.93;86.76;92164.64;1746819;80;21448;-75
2020/12/28 00:33:07;;;;;;;5.37;4.00;;;;;;;-2.87;87.00;92157.17;1797729;77;21218;-75
2020/12/28 00:35:35;;;;;;;7.50;4.87;;;;;;;-2.82;87.19;92166.22;1781622;77;21657;-75
2020/12/28 00:38:04;;;;;;;7.53;4.93;;;;;;;-2.78;87.16;92161.79;1786088;77;21174;-75
2020/12/28 00:40:32;;;;;;;8.67;4.87;;;;;;;-2.79;86.98;92162.88;1839314;76;21629;-75
2020/12/28 00:43:00;;;;;;;43.03;20.53;;;;;;;-2.78;86.78;92157.80;1756239;80;21238;-76
2020/12/28 00:45:28;;;;;;;12.67;7.60;;;;;;;-2.79;86.59;92148.25;1829080;76;21239;-75
2020/12/28 00:47:57;;;;;;;7.70;5.53;;;;;;;-2.77;86.52;92146.80;1822294;76;21261;-76
2020/12/28 00:50:25;;;;;;;6.20;4.43;;;;;;;-2.75;86.45;92141.89;1824773;77;21254;-75
2020/12/28 00:52:53;;;;;;;5.10;3.47;;;;;;;-2.74;86.35;92128.83;1823414;77;21647;-75
2020/12/28 00:55:23;;;;;;;23.20;13.70;;;;;;;-2.79;86.37;92135.71;1786767;78;21278;-77
2020/12/28 00:57:52;;;;;;;20.43;9.73;;;;;;;-2.82;86.59;92128.97;1814166;77;21258;-75
2020/12/28 01:00:20;;;;;;;16.03;8.97;;;;;;;-2.81;86.85;92118.56;1825686;77;21574;-75
2020/12/28 01:02:53;;;;;;;17.00;8.60;;;;;;;-2.79;86.83;92111.77;1787607;78;21176;-75
2020/12/28 01:05:23;;;;;;;15.93;8.03;;;;;;;-2.75;86.93;92095.89;1784627;77;21206;-75
2020/12/28 01:07:51;;;;;;;6.43;4.30;;;;;;;-2.69;86.86;92101.95;1794644;77;22913;-75
2020/12/28 01:10:22;;;;;;;7.47;4.73;;;;;;;-2.67;86.66;92082.98;1776143;79;21186;-75
2020/12/28 01:12:52;;;;;;;4.30;3.13;;;;;;;-2.70;86.41;92078.35;1785877;79;21483;-75
2020/12/28 01:15:20;;;;;;;4.10;3.17;;;;;;;-2.70;86.50;92071.70;1780292;78;21333;-75
2020/12/28 01:17:49;;;;;;;4.93;3.43;;;;;;;-2.69;86.51;92067.35;1781589;78;21803;-75
2020/12/28 01:20:19;;;;;;;3.47;2.93;;;;;;;-2.67;86.31;92068.36;1786925;78;21147;-75
2020/12/28 01:22:49;;;;;;;4.43;3.30;;;;;;;-2.75;86.62;92052.75;1810908;77;21215;-76
2020/12/28 01:25:17;;;;;;;4.50;3.80;;;;;;;-2.83;87.09;92045.73;1776865;77;21198;-74
2020/12/28 01:27:50;;;;;;;3.80;3.30;;;;;;;-2.83;87.75;92047.06;1813300;77;21194;-75
2020/12/28 01:30:19;;;;;;;3.27;2.63;;;;;;;-2.80;88.07;92029.64;1817129;77;22458;-75
2020/12/28 01:32:47;;;;;;;6.07;4.50;;;;;;;-2.75;88.14;92022.16;1788913;77;21191;-76
2020/12/28 01:35:20;;;;;;;20.80;11.00;;;;;;;-2.71;87.99;92024.37;1815272;77;21679;-75
2020/12/28 01:37:49;;;;;;;33.13;16.40;;;;;;;-2.68;87.70;92018.89;1795630;77;21220;-75
2020/12/28 01:40:18;;;;;;;27.17;14.03;;;;;;;-2.66;87.45;92012.67;1763262;80;21200;-76
2020/12/28 01:42:46;;;;;;;25.00;13.67;;;;;;;-2.65;87.20;92028.84;1738524;80;21788;-75
2020/12/28 01:45:14;;;;;;;29.83;15.47;;;;;;;-2.68;86.95;92016.23;1689002;81;21715;-75
2020/12/28 01:47:43;;;;;;;28.33;13.83;;;;;;;-2.70;86.97;92016.59;1747948;79;21239;-76
2020/12/28 01:50:13;;;;;;;24.10;12.07;;;;;;;-2.66;86.81;92014.57;1779342;78;21791;-76
2020/12/28 01:52:41;;;;;;;17.13;8.70;;;;;;;-2.65;86.80;92011.55;1787559;78;21268;-75
2020/12/28 01:55:10;;;;;;;6.97;4.17;;;;;;;-2.64;86.65;92002.44;1748804;79;22424;-76
2020/12/28 01:57:40;;;;;;;4.87;3.30;;;;;;;-2.62;86.69;92010.86;1750850;80;21198;-75
2020/12/28 02:00:08;;;;;;;5.10;3.00;;;;;;;-2.60;86.56;92008.61;1744271;80;21198;-76
2020/12/28 02:02:44;;;;;;;4.53;3.57;;;;;;;-2.59;86.59;91999.53;1767942;77;21800;-75
2020/12/28 02:05:14;;;;;;;4.63;3.50;;;;;;;-2.59;86.60;92010.17;1820738;77;21259;-77
2020/12/28 02:07:42;;;;;;;27.00;13.93;;;;;;;-2.54;86.67;91993.16;1814116;77;21283;-75
2020/12/28 02:10:11;;;;;;;23.07;13.57;;;;;;;-2.54;86.47;91995.81;1812233;77;21253;-76
2020/12/28 02:12:39;;;;;;;26.93;14.03;;;;;;;-2.57;86.20;91997.84;1824391;75;21174;-76
2020/12/28 02:15:08;;;;;;;36.13;16.20;;;;;;;-2.63;86.03;91988.58;1833802;76;21091;-76
2020/12/28 02:17:41;;;;;;;30.40;16.40;;;;;;;-2.69;86.16;91982.20;1754278;77;21160;-76
2020/12/28 02:20:11;;;;;;;23.20;13.27;;;;;;;-2.69;86.46;91982.20;1865415;75;21641;-76
2020/12/28 02:22:40;;;;;;;23.83;13.10;;;;;;;-2.69;86.56;91980.87;1855795;75;21258;-75
2020/12/28 02:25:10;;;;;;;24.70;14.53;;;;;;;-2.69;86.75;91979.54;1828509;77;21164;-76
2020/12/28 02:27:39;;;;;;;21.10;12.03;;;;;;;-2.68;86.76;91981.64;1820888;77;21648;-75
2020/12/28 02:30:08;;;;;;;18.23;10.20;;;;;;;-2.63;86.73;91978.72;1827241;77;21517;-77
2020/12/28 02:32:38;;;;;;;14.03;8.43;;;;;;;-2.58;86.58;91968.36;1810750;78;21222;-77
2020/12/28 02:35:23;;;;;;;17.37;9.60;;;;;;;-2.57;86.58;91974.66;1839968;76;21344;-76
2020/12/28 02:37:53;;;;;;;15.20;7.90;;;;;;;-2.58;86.70;91959.81;1812036;77;21241;-76
2020/12/28 02:40:21;;;;;;;10.63;6.80;;;;;;;-2.57;86.90;91957.92;1850538;76;21227;-76
2020/12/28 02:42:50;;;;;;;8.23;5.33;;;;;;;-2.56;86.97;91943.48;1805054;77;21223;-76
2020/12/28 02:45:36;;;;;;;8.10;4.90;;;;;;;-2.54;87.13;91937.27;1825596;77;22005;-77
2020/12/28 02:48:22;;;;;;;13.60;7.97;;;;;;;-2.55;87.30;91936.50;1803988;77;21146;-76
2020/12/28 02:51:13;;;;;;;4.80;3.80;;;;;;;-2.54;87.66;91929.28;1808391;76;21244;-76
2020/12/28 02:53:59;;;;;;;6.20;4.30;;;;;;;-2.49;88.10;91931.09;1829176;76;21266;-76
2020/12/28 02:56:46;;;;;;;8.53;5.20;;;;;;;-2.42;88.53;91918.48;1805860;77;21257;-76
2020/12/28 02:59:32;;;;;;;7.90;5.37;;;;;;;-2.35;88.63;91903.98;1821501;77;21615;-77
2020/12/28 03:02:18;;;;;;;5.63;4.17;;;;;;;-2.29;88.76;91905.26;1816718;77;21279;-77
2020/12/28 03:04:51;;;;;;;6.40;4.63;;;;;;;-2.23;88.90;91913.16;1784478;77;21167;-76
2020/12/28 03:07:37;;;;;;;7.10;4.80;;;;;;;-2.14;88.98;91907.63;1829400;77;21293;-76
2020/12/28 03:10:24;;;;;;;17.13;9.77;;;;;;;-2.07;88.91;91918.95;1846496;75;21648;-76
2020/12/28 03:13:10;;;;;;;15.57;9.17;;;;;;;-2.01;88.70;91908.23;1847289;76;21235;-76
2020/12/28 03:15:57;;;;;;;21.27;12.00;;;;;;;-2.00;88.61;91911.86;1842708;76;21166;-77
2020/12/28 03:18:43;;;;;;;21.37;11.03;;;;;;;-2.01;88.59;91907.67;1848899;76;21234;-76
2020/12/28 03:21:30;;;;;;;19.77;11.37;;;;;;;-1.98;88.76;91896.88;1843404;75;21048;-76
2020/12/28 03:24:17;;;;;;;18.73;11.57;;;;;;;-1.94;88.97;91899.60;1815329;77;21215;-76
2020/12/28 03:26:47;;;;;;;24.80;16.33;;;;;;;-1.94;88.96;91910.27;1781351;77;21716;-76
2020/12/28 03:29:33;;;;;;;19.87;13.03;;;;;;;-1.97;89.04;91911.73;1836908;76;21290;-76
2020/12/28 03:32:19;;;;;;;23.77;13.57;;;;;;;-1.96;89.05;91903.41;1825446;77;21144;-77
2020/12/28 03:35:03;;;;;;;17.93;11.27;;;;;;;-1.93;89.02;91901.14;1830486;76;21222;-73
2020/12/28 03:37:49;;;;;;;20.37;11.90;;;;;;;-1.96;88.87;91903.41;1772678;78;21155;-75
2020/12/28 03:40:35;;;;;;;18.40;11.77;;;;;;;-1.97;88.98;91899.17;1765726;79;21610;-75
2020/12/28 03:43:22;;;;;;;19.50;11.93;;;;;;;-1.94;89.08;91896.94;1818323;75;21110;-73
2020/12/28 03:46:08;;;;;;;18.53;11.87;;;;;;;-1.90;89.28;91891.11;1825345;77;21619;-73
2020/12/28 03:48:54;;;;;;;20.27;10.73;;;;;;;-1.90;89.40;91874.56;1804604;76;21326;-74
2020/12/28 03:51:41;;;;;;;22.20;12.77;;;;;;;-1.87;89.44;91883.18;1783842;75;21175;-74
2020/12/28 03:54:28;;;;;;;19.60;10.90;;;;;;;-1.83;89.56;91890.67;1773593;78;21380;-74
2020/12/28 03:57:15;;;;;;;13.43;8.17;;;;;;;-1.87;89.41;91873.86;1756091;78;21604;-74
2020/12/28 04:00:01;;;;;;;19.43;10.27;;;;;;;-1.94;89.67;91879.62;1762327;78;21261;-75
2020/12/28 04:02:42;;;;;;;15.77;9.43;;;;;;;-1.94;90.05;91864.41;1799004;77;21696;-75
2020/12/28 04:05:29;;;;;;;20.20;12.23;;;;;;;-1.91;90.24;91859.70;1814997;76;21148;-74
2020/12/28 04:08:06;;;;;;;8.83;6.03;;;;;;;-1.89;89.82;91868.66;1778578;77;21365;-76
2020/12/28 04:10:52;;;;;;;17.13;10.63;;;;;;;-1.93;89.42;91866.50;1821638;76;21193;-76
2020/12/28 04:13:39;;;;;;;8.43;5.57;;;;;;;-1.99;89.44;91864.70;1759469;77;21244;-75
2020/12/28 04:16:08;;;;;;;16.03;10.27;;;;;;;-2.03;89.82;91858.52;1798724;75;21693;-74
2020/12/28 04:18:36;;;;;;;19.93;10.47;;;;;;;-2.04;90.10;91869.74;1821979;77;21262;-76
2020/12/28 04:21:04;;;;;;;20.30;12.77;;;;;;;-2.01;90.57;91873.60;1819729;77;21412;-75
2020/12/28 04:23:33;;;;;;;19.93;13.23;;;;;;;-1.93;90.92;91879.83;1882294;75;21133;-76
2020/12/28 04:26:02;;;;;;;22.83;13.93;;;;;;;-1.87;91.00;91868.53;1808190;77;21274;-76
2020/12/28 04:28:30;;;;;;;20.50;13.20;;;;;;;-1.80;90.99;91869.98;1811967;77;21242;-76
2020/12/28 04:30:58;;;;;;;22.93;12.23;;;;;;;-1.78;90.95;91866.38;1831598;75;21055;-76
2020/12/28 04:33:26;;;;;;;18.83;12.40;;;;;;;-1.72;90.94;91866.88;1865208;75;21686;-76
2020/12/28 04:35:55;;;;;;;21.17;14.47;;;;;;;-1.68;90.79;91869.59;1754186;80;21150;-76
2020/12/28 04:38:23;;;;;;;18.17;11.93;;;;;;;-1.64;90.73;91866.42;1753949;79;21681;-76
2020/12/28 04:40:51;;;;;;;17.47;11.90;;;;;;;-1.62;90.70;91872.16;1805885;75;21190;-76
2020/12/28 04:43:19;;;;;;;19.57;12.67;;;;;;;-1.60;90.59;91849.92;1785359;77;21301;-76
2020/12/28 04:45:47;;;;;;;10.10;7.47;;;;;;;-1.57;90.61;91857.98;1789335;78;21174;-76
2020/12/28 04:48:15;;;;;;;7.50;5.43;;;;;;;-1.52;90.55;91850.23;1751689;79;21233;-77
2020/12/28 04:50:43;;;;;;;8.00;5.63;;;;;;;-1.51;90.27;91843.77;1748830;78;22104;-77
2020/12/28 04:53:12;;;;;;;6.40;4.03;;;;;;;-1.57;89.97;91849.22;1780031;79;21192;-76
2020/12/28 04:55:41;;;;;;;4.63;3.13;;;;;;;-1.64;90.16;91850.43;1781429;76;21134;-76
2020/12/28 04:58:09;;;;;;;3.90;3.20;;;;;;;-1.73;90.44;91843.98;1782688;78;22520;-77
2020/12/28 05:00:39;;;;;;;5.30;3.70;;;;;;;-1.79;90.67;91845.44;1782196;78;21321;-75
2020/12/28 05:03:08;;;;;;;5.53;4.03;;;;;;;-1.86;91.04;91842.65;1780111;78;21203;-76
2020/12/28 05:05:46;;;;;;;4.60;3.30;;;;;;;-1.88;91.60;91843.55;1778414;79;21556;-77
2020/12/28 05:08:14;;;;;;;3.53;2.83;;;;;;;-1.82;91.96;91839.48;1721086;79;21341;-74
2020/12/28 05:10:43;;;;;;;4.00;3.33;;;;;;;-1.78;92.01;91840.30;1711640;81;21218;-73
2020/12/28 05:13:12;;;;;;;6.67;4.03;;;;;;;-1.80;92.21;91855.33;1754005;79;21266;-75
2020/12/28 05:15:51;;;;;;;9.17;5.43;;;;;;;-1.81;92.30;91837.78;1750489;79;21324;-75
2020/12/28 05:18:19;;;;;;;8.37;5.10;;;;;;;-1.87;92.33;91842.45;1769962;79;21198;-75
2020/12/28 05:20:48;;;;;;;16.83;9.47;;;;;;;-1.92;92.69;91842.16;1788118;78;21071;-74
2020/12/28 05:23:18;;;;;;;18.83;9.73;;;;;;;-1.91;92.67;91840.30;1874042;75;21203;-75
2020/12/28 05:25:47;;;;;;;8.63;5.57;;;;;;;-1.93;92.43;91837.97;1845008;75;21120;-74
2020/12/28 05:28:23;;;;;;;10.30;6.30;;;;;;;-1.91;92.22;91838.39;1836362;76;21264;-74
2020/12/28 05:30:51;;;;;;;9.85;5.95;;;;;;;-1.88;92.39;91836.89;1836332;76;21217;-74
2020/12/28 05:33:19;;;;;;;5.60;4.60;;;;;;;-1.83;92.78;91824.05;1812670;78;21469;-74
2020/12/28 05:35:48;;;;;;;7.60;6.10;;;;;;;-1.77;92.96;91823.97;1790711;77;21246;-74
2020/12/28 05:38:16;;;;;;;9.13;4.97;;;;;;;-1.77;92.67;91823.18;1830594;76;21654;-73
2020/12/28 05:40:44;;;;;;;5.40;4.90;;;;;;;-1.82;92.55;91828.82;1839130;77;21060;-74
2020/12/28 05:43:15;;;;;;;4.67;3.73;;;;;;;-1.83;92.54;91824.63;1788361;78;21215;-74
2020/12/28 05:45:46;;;;;;;5.93;3.73;;;;;;;-1.82;92.40;91824.26;1798120;78;21221;-74
2020/12/28 05:48:14;;;;;;;2.63;2.43;;;;;;;-1.80;92.51;91843.34;1706869;82;21254;-73
2020/12/28 05:50:42;;;;;;;4.00;2.87;;;;;;;-1.81;92.23;91849.77;1805951;77;21234;-75
2020/12/28 05:53:10;;;;;;;5.03;3.60;;;;;;;-1.91;92.03;91849.05;1797121;78;21487;-75
2020/12/28 05:55:38;;;;;;;5.00;3.40;;;;;;;-1.98;92.52;91852.92;1798233;77;21209;-75
2020/12/28 05:58:07;;;;;;;3.97;2.80;;;;;;;-1.91;93.12;91866.36;1802133;76;21213;-75
2020/12/28 06:00:35;;;;;;;4.17;3.50;;;;;;;-1.86;92.98;91851.97;1732691;81;21635;-75
2020/12/28 06:03:08;;;;;;;3.77;3.30;;;;;;;-1.85;92.80;91856.94;1717947;81;21760;-75
2020/12/28 06:05:36;;;;;;;7.13;4.90;;;;;;;-1.83;92.65;91852.60;1778836;78;21184;-76
2020/12/28 06:08:05;;;;;;;8.67;4.70;;;;;;;-1.81;93.21;91846.34;1775121;77;21174;-76
2020/12/28 06:10:35;;;;;;;4.53;3.20;;;;;;;-1.84;93.25;91856.38;1846915;74;21209;-77
2020/12/28 06:13:05;;;;;;;3.70;2.90;;;;;;;-1.87;93.49;91843.78;1865015;75;22185;-76
2020/12/28 06:15:34;;;;;;;5.70;4.57;;;;;;;-1.80;94.89;91847.33;1810837;78;37577;-76
2020/12/28 06:18:02;;;;;;;14.07;9.20;;;;;;;-1.65;95.60;91848.33;1744572;79;21069;-78
2020/12/28 06:23:03;;;;;;;6.67;4.97;;;;;;;-1.60;94.11;91857.92;1796193;78;21305;-76
2020/12/28 06:25:32;;;;;;;3.72;2.98;;;;;;;-1.71;94.04;91849.75;1860436;75;21829;-76
2020/12/28 06:28:00;;;;;;;3.73;2.93;;;;;;;-1.73;94.98;91846.12;1868807;75;21294;-75
2020/12/28 06:30:28;;;;;;;3.53;3.07;;;;;;;-1.67;95.55;91843.14;1815933;77;21235;-76
2020/12/28 06:33:04;;;;;;;3.83;2.60;;;;;;;-1.61;95.71;91843.83;1873900;75;21292;-76
2020/12/28 06:35:32;;;;;;;2.50;2.30;;;;;;;-1.57;95.58;91844.64;1832295;75;21087;-76
2020/12/28 06:38:01;;;;;;;4.40;3.03;;;;;;;-1.51;95.99;91846.43;1827008;77;22473;-76
2020/12/28 06:40:39;;;;;;;6.60;4.27;;;;;;;-1.39;96.61;91834.26;1838642;75;21202;-75
2020/12/28 06:43:15;;;;;;;4.97;3.97;;;;;;;-1.26;97.12;91833.48;1868343;75;21530;-75
2020/12/28 06:45:46;;;;;;;3.47;3.03;;;;;;;-1.12;97.22;91837.69;1809897;77;21515;-77
2020/12/28 06:48:24;;;;;;;3.43;2.70;;;;;;;-1.04;96.91;91849.22;1879842;75;21091;-74
2020/12/28 06:50:59;;;;;;;12.93;8.30;;;;;;;-0.97;96.78;91850.66;1813170;76;22494;-77
2020/12/28 06:53:28;;;;;;;6.33;5.13;;;;;;;-0.90;96.65;91835.28;1827856;76;21234;-75
2020/12/28 06:56:08;;;;;;;5.87;5.27;;;;;;;-0.86;96.33;91819.55;1846778;75;21067;-74
2020/12/28 06:58:36;;;;;;;10.90;9.53;;;;;;;-0.83;95.89;91822.83;1865053;75;21120;-75
2020/12/28 07:01:06;;;;;;;12.93;7.50;;;;;;;-0.84;95.30;91823.17;1833974;75;21558;-75
2020/12/28 07:03:34;;;;;;;4.97;3.60;;;;;;;-0.85;94.99;91829.08;1880574;75;21305;-75
2020/12/28 07:06:03;;;;;;;3.10;2.80;;;;;;;-0.76;95.46;91821.55;1855248;75;22116;-75
2020/12/28 07:08:39;;;;;;;3.90;2.27;;;;;;;-0.65;95.70;91827.02;1847443;76;21696;-77
2020/12/28 07:11:05;;;;;;;15.30;9.73;;;;;;;-0.60;95.17;91836.06;1864004;74;21274;-75
2020/12/28 07:13:36;;;;;;;8.58;6.03;;;;;;;-0.55;95.04;91836.30;1859136;75;21268;-76
2020/12/28 07:16:06;;;;;;;3.40;3.00;;;;;;;-0.54;95.44;91829.25;1810677;76;21784;-75
2020/12/28 07:18:35;;;;;;;6.12;3.62;;;;;;;-0.48;95.94;91841.73;1883760;75;21499;-76
2020/12/28 07:21:03;;;;;;;3.17;2.85;;;;;;;-0.43;95.90;91832.62;1821905;75;21028;-76
2020/12/28 07:23:32;;;;;;;10.93;5.78;;;;;;;-0.33;96.38;91848.77;1809760;78;21163;-77
2020/12/28 07:26:10;;;;;;;10.53;7.47;;;;;;;-0.23;96.31;91838.55;1843132;75;21242;-75
2020/12/28 07:28:40;;;;;;;14.30;8.85;;;;;;;-0.10;96.75;91847.29;1866972;75;21250;-75
2020/12/28 07:31:08;;;;;;;18.05;11.60;;;;;;;0.04;96.72;91853.36;1824910;76;21626;-75
2020/12/28 07:33:45;;;;;;;25.20;13.25;;;;;;;0.17;96.72;91846.59;1814714;76;21448;-74
2020/12/28 07:36:15;;;;;;;25.77;16.50;;;;;;;0.35;96.83;91850.77;1814133;75;21194;-73
2020/12/28 07:38:48;;;;;;;28.27;18.07;;;;;;;0.61;97.01;91853.09;1809376;78;21166;-74
2020/12/28 07:41:22;;;;;;;19.15;13.48;;;;;;;1.01;97.33;91842.07;1814100;77;21568;-74
2020/12/28 07:43:56;;;;;;;17.87;11.80;;;;;;;1.38;96.34;91837.30;1831281;75;21636;-74
2020/12/28 07:46:54;;;;;;;10.50;6.50;;;;;;;1.58;94.81;91841.81;1873950;75;21577;-75
2020/12/28 07:49:24;;;;;;;8.45;5.70;;;;;;;1.89;93.89;91843.06;1766990;79;21273;-74
2020/12/28 07:52:08;;;;;;;6.55;4.25;;;;;;;1.99;92.14;91838.09;1807015;77;21815;-74
2020/12/28 07:54:46;;;;;;;57.93;34.88;;;;;;;1.98;91.80;91835.98;1816714;77;22235;-76
2020/12/28 07:57:32;;;;;;;32.50;19.35;;;;;;;1.96;91.34;91834.28;1823999;77;21725;-73
2020/12/28 08:00:28;;;;;;;26.70;18.07;;;;;;;1.97;90.67;91832.36;1833198;77;22851;-75
2020/12/28 08:03:05;;;;;;;14.03;10.08;;;;;;;1.89;90.36;91840.38;1735931;78;21253;-75
2020/12/28 08:05:34;;;;;;;14.18;8.73;;;;;;;1.86;90.00;91849.17;1732216;81;22488;-75
2020/12/28 08:08:02;;;;;;;17.80;8.38;;;;;;;1.85;89.78;91841.52;1723998;81;21198;-73
2020/12/28 08:10:30;;;;;;;14.73;7.35;;;;;;;1.84;89.91;91840.75;1727530;82;21206;-74
2020/12/28 08:12:59;;;;;;;23.30;8.15;;;;;;;1.83;90.14;91834.42;1726550;81;21305;-74
2020/12/28 08:15:30;;;;;;;14.18;6.55;;;;;;;1.86;90.48;91825.63;1727387;82;21186;-75
2020/12/28 08:18:10;;;;;;;28.02;11.75;;;;;;;1.96;90.50;91824.89;1741433;80;21231;-75
2020/12/28 08:20:39;;;;;;;18.27;7.05;;;;;;;2.04;89.51;91818.97;1755485;80;21207;-75
2020/12/28 08:23:07;;;;;;;6.62;4.30;;;;;;;1.99;88.51;91828.70;1780618;79;21183;-76
2020/12/28 08:25:38;;;;;;;6.25;3.45;;;;;;;2.03;89.53;91827.59;1764553;79;21298;-75
2020/12/28 08:28:06;;;;;;;9.58;3.83;;;;;;;2.29;88.80;91819.76;1734755;80;21380;-75
2020/12/28 08:30:35;;;;;;;12.05;5.35;;;;;;;2.71;88.91;91825.52;1775564;78;21210;-75
2020/12/28 08:33:03;;;;;;;22.50;8.28;;;;;;;3.18;87.51;91812.83;1758239;79;21294;-75
2020/12/28 08:35:31;;;;;;;12.73;5.62;;;;;;;3.30;84.34;91806.45;1741978;80;21268;-76
2020/12/28 08:37:59;;;;;;;11.30;5.17;;;;;;;3.30;84.45;91814.51;1727505;80;21278;-75
2020/12/28 08:40:28;;;;;;;9.65;4.72;;;;;;;3.29;83.11;91818.36;1753808;79;21254;-75
2020/12/28 08:43:00;;;;;;;7.83;3.98;;;;;;;3.20;83.60;91811.29;1754739;80;21634;-75
2020/12/28 08:45:29;;;;;;;4.58;3.37;;;;;;;3.09;83.01;91807.28;1779282;79;21119;-76
2020/12/28 08:47:58;;;;;;;9.05;4.40;;;;;;;2.84;83.86;91803.86;1762715;78;21068;-76
2020/12/28 08:50:35;;;;;;;6.92;3.95;;;;;;;2.65;84.08;91791.61;1749938;79;21278;-75
2020/12/28 08:53:03;;;;;;;7.33;5.45;;;;;;;2.45;83.97;91790.48;1747734;79;21282;-75
2020/12/28 08:55:31;;;;;;;7.83;5.67;;;;;;;2.30;84.97;91789.12;1772900;79;22496;-76
2020/12/28 08:57:59;;;;;;;5.28;4.25;;;;;;;2.37;86.03;91785.66;1739399;80;21261;-74
2020/12/28 09:00:28;;;;;;;11.18;6.80;;;;;;;2.47;85.79;91778.77;1719949;82;21004;-75
2020/12/28 09:02:57;;;;;;;19.05;11.05;;;;;;;2.61;86.30;91791.61;1792015;77;21170;-74
2020/12/28 09:05:32;;;;;;;16.35;10.63;;;;;;;2.93;86.57;91797.51;1768284;78;21263;-75
2020/12/28 09:08:00;;;;;;;16.20;10.98;;;;;;;3.29;86.04;91792.07;1776313;77;21386;-74
2020/12/28 09:10:29;;;;;;;16.62;10.55;;;;;;;3.93;85.46;91788.35;1825133;77;21348;-74
2020/12/28 09:12:57;;;;;;;10.78;9.03;;;;;;;4.74;84.32;91786.25;1734329;81;22049;-75
2020/12/28 09:15:25;;;;;;;15.08;10.25;;;;;;;5.42;81.32;91775.60;1792508;78;22153;-74
2020/12/28 09:17:54;;;;;;;36.85;18.80;;;;;;;5.83;78.52;91778.20;1799771;78;21262;-73
2020/12/28 09:20:22;;;;;;;108.80;45.88;;;;;;;5.99;76.96;91780.33;1797240;78;21250;-74
2020/12/28 09:22:51;;;;;;;76.75;37.17;;;;;;;5.84;74.82;91774.33;1800164;78;21768;-73
2020/12/28 09:25:19;;;;;;;43.13;21.75;;;;;;;5.55;75.18;91765.81;1797353;77;21227;-73
2020/12/28 09:27:47;;;;;;;21.62;13.32;;;;;;;5.34;75.06;91770.08;1881494;75;21194;-74
2020/12/28 09:30:16;;;;;;;29.92;18.12;;;;;;;5.08;75.80;91764.21;1791556;78;21167;-74
2020/12/28 09:32:44;;;;;;;20.62;13.68;;;;;;;4.84;76.71;91757.88;1843001;75;21238;-73
2020/12/28 09:35:12;;;;;;;18.40;12.95;;;;;;;4.66;77.55;91757.27;1842400;76;21535;-73
2020/12/28 09:37:43;;;;;;;19.27;12.55;;;;;;;4.74;78.99;91750.69;1789410;78;21326;-76
2020/12/28 09:40:11;;;;;;;36.23;24.47;;;;;;;4.74;78.99;91750.69;1852856;76;21720;-75
2020/12/28 09:42:39;;;;;;;19.65;12.40;;;;;;;4.85;78.56;91751.34;1863446;75;21242;-73
2020/12/28 09:45:36;;;;;;;35.17;19.82;;;;;;;5.12;76.94;91757.44;1799069;76;22790;-74
2020/12/28 09:47:39;;;;;;;17.67;9.45;;;;;;;5.12;76.94;91757.44;1801630;77;21008;-73
2020/12/28 09:50:07;;;;;;;57.73;28.98;;;;;;;5.17;76.57;91746.21;1810665;77;21218;-74
2020/12/28 09:52:35;;;;;;;16.62;7.95;;;;;;;5.11;76.17;91744.55;1829177;77;21300;-74
2020/12/28 09:55:03;;;;;;;47.78;20.02;;;;;;;5.11;76.17;91744.55;1789593;78;21139;-74
2020/12/28 09:57:31;;;;;;;26.75;10.95;;;;;;;4.88;77.48;91736.30;1792391;78;21720;-74
2020/12/28 09:59:59;;;;;;;30.57;14.13;;;;;;;4.88;77.48;91736.30;1847056;75;21190;-74
2020/12/28 10:02:28;;;;;;;20.45;9.88;;;;;;;4.73;77.89;91728.94;1855876;75;21140;-73
2020/12/28 10:04:56;;;;;;;59.30;26.57;;;;;;;4.59;78.47;91739.27;1807928;77;21360;-73
2020/12/28 10:07:24;;;;;;;28.07;13.45;;;;;;;4.70;79.52;91734.36;1909351;74;21123;-73
2020/12/28 10:09:53;;;;;;;11.33;6.50;;;;;;;4.81;79.35;91735.02;1799038;75;21493;-74
2020/12/28 10:12:21;;;;;;;9.80;6.53;;;;;;;4.85;78.67;91728.45;1858449;75;21225;-74
2020/12/28 10:14:49;;;;;;;6.08;4.40;;;;;;;4.91;78.04;91733.40;1875886;75;21163;-73
2020/12/28 10:17:18;;;;;;;5.75;4.45;;;;;;;4.99;76.39;91726.19;1819274;77;21437;-75
2020/12/28 10:19:47;;;;;;;8.65;5.87;;;;;;;5.09;75.65;91707.80;1788673;79;21306;-77
2020/12/28 10:22:15;;;;;;;15.28;7.90;;;;;;;5.17;75.37;91701.75;1778563;79;22070;-75
2020/12/28 10:24:43;;;;;;;7.37;4.12;;;;;;;5.21;75.92;91703.06;1790062;79;21955;-74
2020/12/28 10:27:11;;;;;;;4.75;3.25;;;;;;;5.11;77.02;91697.41;1777901;79;21176;-77
2020/12/28 10:29:39;;;;;;;4.85;3.42;;;;;;;5.06;76.22;91683.02;1778152;79;21522;-75
2020/12/28 10:32:07;;;;;;;25.72;11.05;;;;;;;5.20;74.84;91677.29;1777802;78;21268;-75
2020/12/28 10:34:36;;;;;;;6.25;3.90;;;;;;;5.39;75.93;91681.30;1772535;79;21212;-74
2020/12/28 10:37:04;;;;;;;23.70;11.28;;;;;;;5.46;74.48;91671.78;1784098;79;21211;-74
2020/12/28 10:39:32;;;;;;;9.85;5.55;;;;;;;5.60;75.58;91675.05;1801207;78;21246;-74
2020/12/28 10:42:04;;;;;;;7.12;3.77;;;;;;;5.78;75.30;91674.03;1856940;74;21189;-74
2020/12/28 10:44:36;;;;;;;6.25;3.72;;;;;;;5.98;72.79;91666.84;1894107;74;21206;-73
2020/12/28 10:47:04;;;;;;;5.87;4.40;;;;;;;6.20;69.20;91674.00;1841107;77;22383;-75
2020/12/28 10:49:32;;;;;;;11.40;6.47;;;;;;;6.35;68.47;91675.13;1824066;77;22323;-75
2020/12/28 10:52:00;;;;;;;6.55;3.92;;;;;;;6.44;67.35;91676.73;1817545;78;21175;-73
2020/12/28 10:54:28;;;;;;;5.97;3.72;;;;;;;6.48;64.88;91662.00;1816020;78;22332;-75
2020/12/28 10:56:57;;;;;;;6.97;4.00;;;;;;;6.56;64.18;91656.64;1822210;78;21136;-73
2020/12/28 10:59:26;;;;;;;6.08;3.77;;;;;;;6.63;64.62;91649.61;1828904;77;21792;-74
2020/12/28 11:01:56;;;;;;;4.78;3.25;;;;;;;6.66;65.64;91664.41;1817367;78;21174;-74
2020/12/28 11:04:24;;;;;;;7.90;3.98;;;;;;;6.65;63.46;91653.99;1846559;77;21673;-72
2020/12/28 11:06:52;;;;;;;7.15;4.08;;;;;;;6.64;62.80;91643.78;1842761;77;21227;-73
2020/12/28 11:09:20;;;;;;;4.12;2.37;;;;;;;6.64;62.15;91636.27;1841808;77;21150;-73
2020/12/28 11:11:50;;;;;;;3.75;2.80;;;;;;;6.70;60.83;91657.59;1824165;77;21186;-73
2020/12/28 11:14:18;;;;;;;4.05;2.22;;;;;;;6.80;61.64;91656.61;1830671;78;21195;-73
2020/12/28 11:16:47;;;;;;;4.72;2.62;;;;;;;6.91;60.84;91646.38;1831733;78;21491;-74
2020/12/28 11:19:17;;;;;;;5.50;3.37;;;;;;;7.05;60.12;91635.89;1830950;77;21147;-73
2020/12/28 11:21:45;;;;;;;5.05;2.65;;;;;;;7.17;60.19;91643.38;1825830;77;21144;-73
2020/12/28 11:24:13;;;;;;;10.08;5.65;;;;;;;7.29;61.37;91656.25;1822321;78;21232;-75
2020/12/28 11:26:41;;;;;;;6.05;3.08;;;;;;;7.27;60.30;91653.81;1825898;77;21176;-74
2020/12/28 11:29:09;;;;;;;8.45;4.33;;;;;;;7.28;59.83;91639.87;1815132;77;21162;-74
2020/12/28 11:31:38;;;;;;;3.25;1.87;;;;;;;7.37;60.14;91623.67;1822703;78;21170;-73
2020/12/28 11:34:10;;;;;;;6.67;3.72;;;;;;;7.43;58.51;91631.47;1831754;77;21120;-74
2020/12/28 11:36:43;;;;;;;3.42;2.00;;;;;;;7.48;59.06;91637.73;1794357;78;21432;-75
2020/12/28 11:39:11;;;;;;;2.83;2.42;;;;;;;7.54;59.95;91639.53;1822554;77;21593;-76
2020/12/28 11:41:40;;;;;;;3.25;2.72;;;;;;;7.61;58.53;91646.73;1828049;77;21288;-75
2020/12/28 11:44:10;;;;;;;2.02;1.67;;;;;;;7.67;58.65;91641.02;1822284;78;21151;-74
2020/12/28 11:46:40;;;;;;;3.27;2.98;;;;;;;7.72;58.20;91625.63;1830242;77;21666;-75
2020/12/28 11:49:08;;;;;;;1.60;1.20;;;;;;;7.74;57.71;91636.02;1830058;77;21608;-76
2020/12/28 11:51:37;;;;;;;2.85;1.72;;;;;;;7.76;57.16;91630.97;1817175;78;21186;-75